createdAt,value
2023-02-16T00:01:53.711Z,100789.03
2023-02-16T00:04:27.747Z,100780.38
2023-02-16T00:06:55.207Z,100777.81
2023-02-16T00:09:22.976Z,100778.69
2023-02-16T00:12:08.738Z,100782.09
2023-02-16T00:14:36.713Z,100774.34
2023-02-16T00:17:04.386Z,100773.50
2023-02-16T00:19:42.080Z,100779.53
2023-02-16T00:22:08.948Z,100779.53
2023-02-16T00:24:35.559Z,100765.72
2023-02-16T00:27:02.458Z,100784.69
2023-02-16T00:29:34.268Z,100785.56
2023-02-16T00:32:03.619Z,100779.53
2023-02-16T00:34:35.911Z,100783.81
2023-02-16T00:37:05.352Z,100779.50
2023-02-16T00:39:32.287Z,100772.59
2023-02-16T00:42:03.019Z,100778.66
2023-02-16T00:44:48.100Z,100778.66
2023-02-16T00:47:17.653Z,100782.94
2023-02-16T00:49:44.440Z,100778.66
2023-02-16T00:52:27.550Z,100769.13
2023-02-16T00:54:54.008Z,100770.84
2023-02-16T00:57:20.608Z,100771.72
2023-02-16T00:59:49.377Z,100767.38
2023-02-16T01:02:15.905Z,100772.53
2023-02-16T01:04:42.638Z,100769.97
2023-02-16T01:07:32.070Z,100768.25
2023-02-16T01:10:17.253Z,100769.94
2023-02-16T01:12:43.706Z,100752.72
2023-02-16T01:15:14.322Z,100755.28
2023-02-16T01:17:41.253Z,100756.16
2023-02-16T01:20:16.582Z,100760.44
2023-02-16T01:22:43.113Z,100773.41
2023-02-16T01:25:10.124Z,100768.25
2023-02-16T01:27:38.477Z,100765.66
2023-02-16T01:30:07.162Z,100765.66
2023-02-16T01:32:33.886Z,100767.38
2023-02-16T01:35:00.327Z,100766.50
2023-02-16T01:37:26.798Z,100764.78
2023-02-16T01:39:53.270Z,100758.72
2023-02-16T01:42:38.419Z,100754.41
2023-02-16T01:45:14.064Z,100761.28
2023-02-16T01:47:54.721Z,100752.66
2023-02-16T01:50:24.613Z,100758.69
2023-02-16T01:52:58.656Z,100754.38
2023-02-16T01:55:37.844Z,100755.25
2023-02-16T01:58:32.647Z,100757.84
2023-02-16T02:00:59.033Z,100757.84
2023-02-16T02:03:49.845Z,100751.81
2023-02-16T02:06:20.385Z,100745.81
2023-02-16T02:08:54.008Z,100743.19
2023-02-16T02:11:26.569Z,100742.31
2023-02-16T02:14:05.808Z,100737.97
2023-02-16T02:16:32.456Z,100738.84
2023-02-16T02:18:58.892Z,100731.97
2023-02-16T02:22:02.344Z,100733.69
2023-02-16T02:24:40.735Z,100731.97
2023-02-16T02:27:15.891Z,100741.47
2023-02-16T02:30:19.198Z,100748.34
2023-02-16T02:33:03.971Z,100734.53
2023-02-16T02:35:41.328Z,100753.50
2023-02-16T02:38:15.508Z,100739.72
2023-02-16T02:40:55.479Z,100738.00
2023-02-16T02:43:22.132Z,100737.97
2023-02-16T02:45:56.061Z,100729.34
2023-02-16T02:48:22.732Z,100725.94
2023-02-16T02:51:22.619Z,100731.13
2023-02-16T02:54:21.920Z,100725.09
2023-02-16T02:57:16.086Z,100729.38
2023-02-16T03:00:07.307Z,100730.25
2023-02-16T03:02:37.166Z,100734.59
2023-02-16T03:05:07.010Z,100736.31
2023-02-16T03:07:47.522Z,100738.91
2023-02-16T03:10:39.144Z,100739.75
2023-02-16T03:13:11.492Z,100725.97
2023-02-16T03:15:38.805Z,100719.94
2023-02-16T03:18:26.145Z,100726.84
2023-02-16T03:21:11.805Z,100732.91
2023-02-16T03:23:59.048Z,100732.06
2023-02-16T03:26:45.741Z,100732.06
2023-02-16T03:29:21.448Z,100724.31
2023-02-16T03:31:49.900Z,100730.31
2023-02-16T03:34:18.486Z,100737.22
2023-02-16T03:36:47.665Z,100729.50
2023-02-16T03:39:15.560Z,100730.34
2023-02-16T03:41:49.895Z,100738.09
2023-02-16T03:44:16.818Z,100734.63
2023-02-16T03:46:43.504Z,100728.63
2023-02-16T03:49:10.098Z,100728.63
2023-02-16T03:51:36.831Z,100725.16
2023-02-16T03:54:03.570Z,100724.31
2023-02-16T03:56:30.017Z,100722.59
2023-02-16T03:58:56.640Z,100722.59
2023-02-16T04:01:23.317Z,100730.34
2023-02-16T04:03:49.896Z,100740.72
2023-02-16T04:06:16.430Z,100732.06
2023-02-16T04:08:42.997Z,100734.66
2023-02-16T04:11:27.713Z,100733.78
2023-02-16T04:13:54.302Z,100744.13
2023-02-16T04:16:20.882Z,100739.81
2023-02-16T04:18:47.382Z,100739.81
2023-02-16T04:21:13.871Z,100743.28
2023-02-16T04:23:40.944Z,100743.28
2023-02-16T04:26:07.418Z,100737.22
2023-02-16T04:28:33.896Z,100742.44
2023-02-16T04:31:00.490Z,100743.25
2023-02-16T04:33:27.047Z,100738.09
2023-02-16T04:35:53.555Z,100744.13
2023-02-16T04:38:20.063Z,100747.59
2023-02-16T04:40:46.499Z,100738.94
2023-02-16T04:43:13.033Z,100747.59
2023-02-16T04:45:39.501Z,100745.88
2023-02-16T04:48:06.118Z,100751.00
2023-02-16T04:50:32.617Z,100756.19
2023-02-16T04:52:59.145Z,100757.94
2023-02-16T04:55:25.627Z,100753.63
2023-02-16T04:57:52.137Z,100758.78
2023-02-16T05:00:19.282Z,100751.91
2023-02-16T05:02:45.945Z,100757.06
2023-02-16T05:05:12.418Z,100748.44
2023-02-16T05:07:38.928Z,100756.16
2023-02-16T05:10:06.862Z,100749.28
2023-02-16T05:12:51.984Z,100748.44
2023-02-16T05:15:18.569Z,100750.19
2023-02-16T05:17:45.137Z,100745.00
2023-02-16T05:20:12.436Z,100754.47
2023-02-16T05:22:39.349Z,100743.25
2023-02-16T05:25:07.246Z,100744.16
2023-02-16T05:27:33.774Z,100745.81
2023-02-16T05:30:00.332Z,100745.84
2023-02-16T05:32:27.038Z,100749.28
2023-02-16T05:34:53.637Z,100745.84
2023-02-16T05:37:20.198Z,100746.72
2023-02-16T05:39:46.878Z,100762.25
2023-02-16T05:42:13.448Z,100753.63
2023-02-16T05:44:39.961Z,100752.75
2023-02-16T05:47:06.438Z,100759.66
2023-02-16T05:49:32.910Z,100764.84
2023-02-16T05:51:59.380Z,100766.56
2023-02-16T05:54:26.132Z,100766.56
2023-02-16T05:56:53.273Z,100772.59
2023-02-16T05:59:20.022Z,100774.34
2023-02-16T06:01:50.615Z,100784.69
2023-02-16T06:04:18.624Z,100776.94
2023-02-16T06:06:45.200Z,100776.94
2023-02-16T06:09:12.007Z,100776.91
2023-02-16T06:11:39.103Z,100787.28
2023-02-16T06:14:11.755Z,100788.94
2023-02-16T06:16:41.988Z,100788.94
2023-02-16T06:19:09.348Z,100792.41
2023-02-16T06:21:36.221Z,100785.50
2023-02-16T06:24:03.427Z,100780.34
2023-02-16T06:26:29.907Z,100776.84
2023-02-16T06:28:56.995Z,100771.66
2023-02-16T06:31:25.038Z,100780.31
2023-02-16T06:33:52.745Z,100785.47
2023-02-16T06:36:20.317Z,100789.81
2023-02-16T06:38:46.829Z,100790.66
2023-02-16T06:41:13.315Z,100787.25
2023-02-16T06:43:39.809Z,100784.66
2023-02-16T06:46:06.611Z,100794.13
2023-02-16T06:48:33.266Z,100779.50
2023-02-16T06:50:59.808Z,100797.59
2023-02-16T06:53:26.396Z,100787.28
2023-02-16T06:55:52.934Z,100787.28
2023-02-16T06:58:19.502Z,100797.63
2023-02-16T07:00:46.408Z,100795.03
2023-02-16T07:03:12.970Z,100794.19
2023-02-16T07:05:39.426Z,100801.97
2023-02-16T07:08:06.086Z,100804.53
2023-02-16T07:10:43.923Z,100801.94
2023-02-16T07:13:16.030Z,100808.00
2023-02-16T07:15:42.498Z,100801.09
2023-02-16T07:18:08.977Z,100802.81
2023-02-16T07:20:35.451Z,100808.88
2023-02-16T07:23:01.982Z,100814.06
2023-02-16T07:25:28.690Z,100808.03
2023-02-16T07:27:55.253Z,100812.31
2023-02-16T07:30:22.256Z,100801.09
2023-02-16T07:32:48.849Z,100809.75
2023-02-16T07:35:15.308Z,100813.19
2023-02-16T07:37:41.817Z,100814.06
2023-02-16T07:40:08.747Z,100817.50
2023-02-16T07:42:35.348Z,100803.66
2023-02-16T07:45:01.925Z,100804.41
2023-02-16T07:47:28.385Z,100802.63
2023-02-16T07:49:54.872Z,100802.53
2023-02-16T07:52:21.379Z,100802.22
2023-02-16T07:54:47.866Z,100811.59
2023-02-16T07:57:14.344Z,100809.88
2023-02-16T07:59:41.232Z,100816.75
2023-02-16T08:02:07.727Z,100813.81
2023-02-16T08:04:34.616Z,100814.56
2023-02-16T08:07:01.228Z,100819.28
2023-02-16T08:09:27.653Z,100825.81
2023-02-16T08:11:54.092Z,100825.19
2023-02-16T08:14:20.537Z,100821.72
2023-02-16T08:16:47.044Z,100823.91
2023-02-16T08:19:13.968Z,100821.00
2023-02-16T08:21:40.540Z,100810.56
2023-02-16T08:24:08.718Z,100807.69
2023-02-16T08:26:43.103Z,100809.38
2023-02-16T08:29:10.520Z,100807.00
2023-02-16T08:31:38.377Z,100807.94
2023-02-16T08:34:05.902Z,100800.88
2023-02-16T08:36:35.226Z,100800.41
2023-02-16T08:39:12.121Z,100803.44
2023-02-16T08:41:39.221Z,100801.72
2023-02-16T08:44:07.713Z,100796.28
2023-02-16T08:46:35.808Z,100797.16
2023-02-16T08:49:02.297Z,100791.09
2023-02-16T08:51:32.054Z,100801.72
2023-02-16T08:54:00.148Z,100806.44
2023-02-16T08:56:27.558Z,100804.00
2023-02-16T08:58:53.991Z,100802.38
2023-02-16T09:01:20.489Z,100801.09
2023-02-16T09:03:46.940Z,100797.91
2023-02-16T09:06:15.528Z,100797.91
2023-02-16T09:08:42.264Z,100797.09
2023-02-16T09:11:12.701Z,100793.41
2023-02-16T09:13:41.017Z,100798.53
2023-02-16T09:16:12.635Z,100803.34
2023-02-16T09:18:40.255Z,100800.94
2023-02-16T09:21:11.005Z,100789.53
2023-02-16T09:23:40.538Z,100794.50
2023-02-16T09:26:09.609Z,100784.84
2023-02-16T09:28:38.210Z,100788.97
2023-02-16T09:31:12.784Z,100791.09
2023-02-16T09:33:41.525Z,100783.31
2023-02-16T09:36:09.856Z,100788.97
2023-02-16T09:38:37.200Z,100786.34
2023-02-16T09:41:26.965Z,100792.16
2023-02-16T09:44:25.765Z,100789.84
2023-02-16T09:46:55.113Z,100795.03
2023-02-16T09:49:35.241Z,100794.75
2023-02-16T09:52:42.126Z,100785.19
2023-02-16T09:55:14.636Z,100785.06
2023-02-16T09:58:05.684Z,100783.09
2023-02-16T10:00:35.852Z,100776.34
2023-02-16T10:03:41.370Z,100785.22
2023-02-16T10:06:13.939Z,100780.56
2023-02-16T10:09:00.464Z,100790.88
2023-02-16T10:11:41.818Z,100792.47
2023-02-16T10:14:25.029Z,100791.09
2023-02-16T10:16:56.385Z,100790.97
2023-02-16T10:19:38.406Z,100786.22
2023-02-16T10:22:08.380Z,100779.81
2023-02-16T10:24:46.986Z,100772.38
2023-02-16T10:27:16.364Z,100781.53
2023-02-16T10:29:43.011Z,100781.81
2023-02-16T10:32:19.949Z,100774.03
2023-02-16T10:35:01.499Z,100770.91
2023-02-16T10:37:37.744Z,100771.81
2023-02-16T10:40:27.531Z,100767.41
2023-02-16T10:43:12.559Z,100770.91
2023-02-16T10:45:55.782Z,100764.22
2023-02-16T10:48:23.635Z,100766.84
2023-02-16T10:51:04.683Z,100766.53
2023-02-16T10:53:31.321Z,100763.47
2023-02-16T10:55:58.722Z,100755.97
2023-02-16T10:58:40.200Z,100757.03
2023-02-16T11:01:09.732Z,100754.13
2023-02-16T11:03:44.754Z,100749.94
2023-02-16T11:06:18.807Z,100753.28
2023-02-16T11:08:56.705Z,100749.38
2023-02-16T11:11:37.685Z,100756.06
2023-02-16T11:14:21.886Z,100750.34
2023-02-16T11:16:49.307Z,100747.91
2023-02-16T11:19:22.133Z,100757.66
2023-02-16T11:21:58.815Z,100741.72
2023-02-16T11:24:34.688Z,100741.34
2023-02-16T11:27:13.712Z,100737.06
2023-02-16T11:29:40.925Z,100729.75
2023-02-16T11:32:09.597Z,100725.72
2023-02-16T11:34:49.201Z,100731.81
2023-02-16T11:37:27.673Z,100716.25
2023-02-16T11:40:02.003Z,100712.41
2023-02-16T11:42:44.605Z,100723.50
2023-02-16T11:45:22.176Z,100721.69
2023-02-16T11:47:53.906Z,100710.00
2023-02-16T11:50:23.246Z,100715.81
2023-02-16T11:52:57.369Z,100701.44
2023-02-16T11:55:36.057Z,100696.53
2023-02-16T11:58:20.256Z,100697.66
2023-02-16T12:00:59.682Z,100702.28
2023-02-16T12:03:40.002Z,100685.00
2023-02-16T12:06:33.653Z,100686.13
2023-02-16T12:09:36.770Z,100680.69
2023-02-16T12:12:31.496Z,100675.22
2023-02-16T12:15:29.615Z,100660.56
2023-02-16T12:18:05.308Z,100657.03
2023-02-16T12:20:50.357Z,100661.59
2023-02-16T12:23:38.325Z,100648.34
2023-02-16T12:26:36.644Z,100643.78
2023-02-16T12:29:08.844Z,100636.09
2023-02-16T12:32:06.824Z,100639.78
2023-02-16T12:34:33.377Z,100633.94
2023-02-16T12:37:21.241Z,100633.69
2023-02-16T12:40:15.049Z,100638.97
2023-02-16T12:43:18.394Z,100629.28
2023-02-16T12:45:46.288Z,100626.16
2023-02-16T12:48:40.328Z,100622.53
2023-02-16T12:51:13.429Z,100614.09
2023-02-16T12:53:49.169Z,100606.88
2023-02-16T12:56:28.410Z,100612.66
2023-02-16T12:59:05.253Z,100604.94
2023-02-16T13:01:35.630Z,100597.13
2023-02-16T13:04:34.456Z,100597.19
2023-02-16T13:07:26.346Z,100608.78
2023-02-16T13:10:21.677Z,100599.56
2023-02-16T13:13:00.121Z,100597.13
2023-02-16T13:15:34.256Z,100579.03
2023-02-16T13:18:12.466Z,100597.47
2023-02-16T13:20:48.580Z,100580.06
2023-02-16T13:23:23.758Z,100579.78
2023-02-16T13:26:01.089Z,100577.53
2023-02-16T13:28:37.084Z,100589.06
2023-02-16T13:31:12.553Z,100583.00
2023-02-16T13:34:26.885Z,100583.94
2023-02-16T13:37:02.176Z,100577.44
2023-02-16T13:40:10.776Z,100572.91
2023-02-16T13:43:08.956Z,100570.28
2023-02-16T13:45:41.060Z,100573.94
2023-02-16T13:48:24.555Z,100570.75
2023-02-16T13:51:04.305Z,100571.09
2023-02-16T13:53:38.293Z,100571.31
2023-02-16T13:56:22.321Z,100566.44
2023-02-16T13:58:51.683Z,100568.53
2023-02-16T14:01:38.692Z,100565.59
2023-02-16T14:04:12.830Z,100562.94
2023-02-16T14:06:42.769Z,100558.97
2023-02-16T14:09:12.407Z,100559.16
2023-02-16T14:11:52.870Z,100558.00
2023-02-16T14:14:44.021Z,100551.72
2023-02-16T14:17:19.310Z,100547.38
2023-02-16T14:19:49.983Z,100553.53
2023-02-16T14:22:19.692Z,100548.78
2023-02-16T14:24:55.998Z,100552.06
2023-02-16T14:27:47.302Z,100544.88
2023-02-16T14:30:30.702Z,100544.75
2023-02-16T14:33:09.631Z,100542.44
2023-02-16T14:35:38.345Z,100547.22
2023-02-16T14:38:16.250Z,100551.44
2023-02-16T14:40:52.575Z,100547.09
2023-02-16T14:43:25.396Z,100544.88
2023-02-16T14:46:28.424Z,100540.94
2023-02-16T14:49:33.987Z,100539.97
2023-02-16T14:52:41.820Z,100537.44
2023-02-16T14:55:17.159Z,100536.97
2023-02-16T14:57:53.200Z,100543.66
2023-02-16T15:00:56.725Z,100536.94
2023-02-16T15:03:25.454Z,100536.53
2023-02-16T15:05:58.851Z,100533.97
2023-02-16T15:08:36.003Z,100528.44
2023-02-16T15:11:14.336Z,100531.19
2023-02-16T15:13:42.824Z,100525.13
2023-02-16T15:16:15.711Z,100525.44
2023-02-16T15:18:44.650Z,100520.25
2023-02-16T15:21:30.636Z,100520.13
2023-02-16T15:24:00.366Z,100520.00
2023-02-16T15:26:33.391Z,100522.97
2023-02-16T15:29:21.319Z,100513.09
2023-02-16T15:31:48.676Z,100519.09
2023-02-16T15:34:28.407Z,100523.09
2023-02-16T15:36:54.923Z,100519.91
2023-02-16T15:39:40.888Z,100513.00
2023-02-16T15:42:21.141Z,100512.56
2023-02-16T15:44:48.621Z,100506.91
2023-02-16T15:47:21.405Z,100510.59
2023-02-16T15:49:48.589Z,100502.00
2023-02-16T15:52:19.275Z,100504.28
2023-02-16T15:54:47.018Z,100501.66
2023-02-16T15:57:21.729Z,100509.59
2023-02-16T15:59:51.248Z,100512.44
2023-02-16T16:02:26.767Z,100506.13
2023-02-16T16:04:58.742Z,100514.91
2023-02-16T16:07:29.332Z,100504.53
2023-02-16T16:09:57.674Z,100507.84
2023-02-16T16:12:25.755Z,100510.75
2023-02-16T16:14:57.971Z,100508.56
2023-02-16T16:17:33.896Z,100513.22
2023-02-16T16:20:25.866Z,100511.03
2023-02-16T16:23:00.087Z,100517.00
2023-02-16T16:25:35.548Z,100502.16
2023-02-16T16:28:03.698Z,100507.25
2023-02-16T16:30:33.098Z,100513.47
2023-02-16T16:33:05.577Z,100508.09
2023-02-16T16:35:39.924Z,100507.50
2023-02-16T16:38:20.686Z,100504.53
2023-02-16T16:41:01.232Z,100506.72
2023-02-16T16:43:34.949Z,100510.28
2023-02-16T16:46:23.416Z,100513.81
2023-02-16T16:48:53.603Z,100514.66
2023-02-16T16:51:33.660Z,100518.75
2023-02-16T16:54:04.154Z,100519.72
2023-02-16T16:56:34.986Z,100514.59
2023-02-16T16:59:01.490Z,100512.66
2023-02-16T17:01:29.422Z,100502.50
2023-02-16T17:03:56.554Z,100515.09
2023-02-16T17:06:24.421Z,100517.88
2023-02-16T17:08:51.226Z,100518.63
2023-02-16T17:11:28.840Z,100531.78
2023-02-16T17:13:57.554Z,100529.16
2023-02-16T17:16:31.357Z,100523.59
2023-02-16T17:18:57.975Z,100530.28
2023-02-16T17:21:24.435Z,100528.13
2023-02-16T17:23:53.444Z,100528.44
2023-02-16T17:26:21.316Z,100528.78
2023-02-16T17:28:48.318Z,100536.19
2023-02-16T17:31:14.925Z,100535.50
2023-02-16T17:33:41.403Z,100538.75
2023-02-16T17:36:08.720Z,100542.75
2023-02-16T17:38:35.396Z,100544.84
2023-02-16T17:41:01.846Z,100545.34
2023-02-16T17:43:28.577Z,100549.94
2023-02-16T17:45:56.779Z,100550.19
2023-02-16T17:48:28.199Z,100556.69
2023-02-16T17:50:55.035Z,100549.03
2023-02-16T17:53:23.809Z,100548.66
2023-02-16T17:55:53.085Z,100545.22
2023-02-16T17:58:20.642Z,100546.41
2023-02-16T18:00:47.488Z,100540.59
2023-02-16T18:03:14.649Z,100544.41
2023-02-16T18:05:41.300Z,100552.47
2023-02-16T18:08:07.768Z,100549.44
2023-02-16T18:10:37.661Z,100550.53
2023-02-16T18:13:05.540Z,100552.56
2023-02-16T18:15:33.144Z,100557.59
2023-02-16T18:18:00.050Z,100547.03
2023-02-16T18:20:26.751Z,100554.56
2023-02-16T18:22:53.857Z,100557.47
2023-02-16T18:25:20.674Z,100551.22
2023-02-16T18:27:47.109Z,100561.56
2023-02-16T18:30:14.607Z,100570.63
2023-02-16T18:32:41.916Z,100571.34
2023-02-16T18:35:10.785Z,100577.69
2023-02-16T18:37:37.886Z,100569.06
2023-02-16T18:40:06.455Z,100566.53
2023-02-16T18:42:33.079Z,100569.47
2023-02-16T18:44:59.555Z,100564.66
2023-02-16T18:47:26.010Z,100574.59
2023-02-16T18:49:52.844Z,100570.78
2023-02-16T18:52:19.934Z,100573.25
2023-02-16T18:54:46.429Z,100585.63
2023-02-16T18:57:13.466Z,100581.31
2023-02-16T18:59:39.922Z,100592.75
2023-02-16T19:02:06.981Z,100588.03
2023-02-16T19:04:33.835Z,100590.69
2023-02-16T19:07:00.398Z,100588.69
2023-02-16T19:09:26.912Z,100595.50
2023-02-16T19:11:53.415Z,100608.00
2023-02-16T19:14:20.089Z,100594.28
2023-02-16T19:16:46.566Z,100594.19
2023-02-16T19:19:13.233Z,100589.88
2023-02-16T19:21:40.221Z,100585.53
2023-02-16T19:24:07.874Z,100590.28
2023-02-16T19:26:34.323Z,100594.63
2023-02-16T19:29:00.845Z,100585.78
2023-02-16T19:31:30.299Z,100580.47
2023-02-16T19:33:59.316Z,100586.59
2023-02-16T19:36:27.655Z,100574.19
2023-02-16T19:38:54.157Z,100577.16
2023-02-16T19:41:24.192Z,100573.59
2023-02-16T19:43:50.868Z,100571.59
2023-02-16T19:46:17.838Z,100567.28
2023-02-16T19:48:46.025Z,100560.91
2023-02-16T19:52:17.315Z,100556.38
2023-02-16T19:54:43.845Z,100564.00
2023-02-16T19:57:10.480Z,100565.91
2023-02-16T19:59:37.034Z,100561.44
2023-02-16T20:02:03.876Z,100554.13
2023-02-16T20:04:30.282Z,100553.88
2023-02-16T20:06:56.814Z,100557.66
2023-02-16T20:09:24.354Z,100555.97
2023-02-16T20:11:51.915Z,100555.22
2023-02-16T20:14:18.407Z,100552.66
2023-02-16T20:16:45.003Z,100551.19
2023-02-16T20:19:11.613Z,100558.03
2023-02-16T20:21:38.138Z,100568.97
2023-02-16T20:24:05.791Z,100558.19
2023-02-16T20:26:45.119Z,100554.91
2023-02-16T20:29:13.930Z,100554.19
2023-02-16T20:31:44.316Z,100556.19
2023-02-16T20:34:10.975Z,100564.16
2023-02-16T20:36:37.983Z,100555.59
2023-02-16T20:39:06.657Z,100561.59
2023-02-16T20:41:33.550Z,100550.91
2023-02-16T20:44:00.094Z,100552.78
2023-02-16T20:46:26.752Z,100550.47
2023-02-16T20:48:53.980Z,100545.16
2023-02-16T20:51:20.757Z,100541.06
2023-02-16T20:53:48.455Z,100552.06
2023-02-16T20:56:20.650Z,100544.25
2023-02-16T20:58:49.432Z,100538.03
2023-02-16T21:01:24.086Z,100540.09
2023-02-16T21:03:51.507Z,100538.63
2023-02-16T21:06:18.695Z,100537.28
2023-02-16T21:08:45.198Z,100536.56
2023-02-16T21:11:12.020Z,100536.91
2023-02-16T21:13:39.131Z,100532.63
2023-02-16T21:16:07.239Z,100535.50
2023-02-16T21:18:34.493Z,100541.13
2023-02-16T21:21:01.238Z,100533.56
2023-02-16T21:23:28.430Z,100534.53
2023-02-16T21:26:03.659Z,100538.06
2023-02-16T21:28:30.477Z,100528.53
2023-02-16T21:31:02.248Z,100528.53
2023-02-16T21:33:28.770Z,100528.72
2023-02-16T21:36:02.868Z,100531.44
2023-02-16T21:38:29.450Z,100529.09
2023-02-16T21:41:23.932Z,100527.50
2023-02-16T21:44:14.964Z,100524.00
2023-02-16T21:46:46.948Z,100511.66
2023-02-16T21:49:16.301Z,100517.72
2023-02-16T21:51:43.913Z,100513.25
2023-02-16T21:54:14.312Z,100509.84
2023-02-16T21:56:50.190Z,100504.72
2023-02-16T21:59:18.880Z,100504.13
2023-02-16T22:01:53.410Z,100503.19
2023-02-16T22:04:21.889Z,100495.59
2023-02-16T22:06:50.173Z,100496.66
2023-02-16T22:09:21.901Z,100500.03
2023-02-16T22:11:49.275Z,100502.06
2023-02-16T22:14:16.379Z,100497.69
2023-02-16T22:16:45.547Z,100488.78
2023-02-16T22:19:14.195Z,100488.97
2023-02-16T22:21:43.164Z,100486.69
2023-02-16T22:24:12.908Z,100492.94
2023-02-16T22:26:39.716Z,100488.63
2023-02-16T22:29:07.608Z,100486.06
2023-02-16T22:31:34.558Z,100487.78
2023-02-16T22:34:03.786Z,100483.56
2023-02-16T22:36:30.370Z,100486.91
2023-02-16T22:38:57.234Z,100487.69
2023-02-16T22:41:24.655Z,100491.25
2023-02-16T22:43:55.765Z,100479.72
2023-02-16T22:46:23.827Z,100483.22
2023-02-16T22:48:50.891Z,100480.47
2023-02-16T22:51:18.434Z,100480.41
2023-02-16T22:53:45.152Z,100478.13
2023-02-16T22:56:14.834Z,100480.38
2023-02-16T22:58:41.617Z,100474.19
2023-02-16T23:01:17.678Z,100483.38
2023-02-16T23:03:47.409Z,100485.47
2023-02-16T23:06:16.202Z,100485.94
2023-02-16T23:08:43.415Z,100489.50
2023-02-16T23:11:10.646Z,100487.22
2023-02-16T23:13:37.401Z,100494.44
2023-02-16T23:16:09.385Z,100490.41
2023-02-16T23:18:36.145Z,100493.88
2023-02-16T23:21:09.205Z,100490.78
2023-02-16T23:23:36.447Z,100490.22
2023-02-16T23:26:06.311Z,100497.31
2023-02-16T23:28:34.505Z,100497.34
2023-02-16T23:31:01.237Z,100494.72
2023-02-16T23:33:27.746Z,100493.09
2023-02-16T23:35:54.831Z,100491.41
2023-02-16T23:38:21.510Z,100496.03
2023-02-16T23:41:03.545Z,100490.34
2023-02-16T23:43:30.753Z,100499.91
2023-02-16T23:45:57.622Z,100498.78
2023-02-16T23:48:24.105Z,100502.19
2023-02-16T23:50:52.029Z,100512.94
2023-02-16T23:53:20.128Z,100515.75
2023-02-16T23:56:03.767Z,100505.25
2023-02-16T23:58:34.053Z,100513.94
